createdAt,value
2023-03-20T00:00:10.977Z,17.52
2023-03-20T00:02:38.761Z,19.73
2023-03-20T00:05:16.530Z,20.27
2023-03-20T00:07:44.215Z,22.92
2023-03-20T00:10:12.149Z,24.92
2023-03-20T00:12:41.531Z,25.85
2023-03-20T00:15:15.946Z,28.27
2023-03-20T00:17:43.622Z,30.67
2023-03-20T00:20:15.490Z,31.83
2023-03-20T00:22:43.191Z,34.28
2023-03-20T00:25:13.769Z,36.22
2023-03-20T00:27:43.024Z,38.88
2023-03-20T00:30:17.469Z,41.47
2023-03-20T00:32:45.316Z,45.15
2023-03-20T00:35:21.283Z,47.08
2023-03-20T00:37:48.945Z,50.25
2023-03-20T00:40:17.020Z,49.42
2023-03-20T00:42:46.754Z,52.20
2023-03-20T00:45:17.575Z,55.90
2023-03-20T00:47:45.970Z,59.67
2023-03-20T00:50:21.825Z,62.33
2023-03-20T00:52:49.923Z,69.28
2023-03-20T00:55:17.873Z,67.78
2023-03-20T00:57:48.053Z,77.07
2023-03-20T01:00:26.318Z,75.20
2023-03-20T01:02:55.421Z,78.10
2023-03-20T01:05:25.435Z,82.47
2023-03-20T01:07:55.035Z,86.07
2023-03-20T01:10:24.085Z,87.05
2023-03-20T01:12:53.088Z,96.85
2023-03-20T01:15:23.126Z,100.43
2023-03-20T01:17:50.859Z,100.20
2023-03-20T01:20:20.088Z,106.63
2023-03-20T01:22:47.806Z,105.03
2023-03-20T01:25:16.059Z,106.25
2023-03-20T01:27:44.714Z,106.22
2023-03-20T01:30:19.383Z,112.53
2023-03-20T01:32:48.100Z,113.70
2023-03-20T01:35:17.674Z,128.23
2023-03-20T01:37:45.772Z,124.60
2023-03-20T01:40:33.397Z,130.88
2023-03-20T01:43:02.606Z,129.23
2023-03-20T01:45:34.109Z,141.68
2023-03-20T01:48:04.089Z,137.02
2023-03-20T01:50:32.932Z,138.85
2023-03-20T01:53:11.046Z,144.80
2023-03-20T01:55:44.624Z,143.02
2023-03-20T01:58:15.971Z,156.95
2023-03-20T02:00:45.349Z,163.35
2023-03-20T02:03:16.517Z,164.35
2023-03-20T02:06:13.395Z,168.23
2023-03-20T02:09:10.465Z,175.18
2023-03-20T02:11:42.669Z,178.73
2023-03-20T02:14:10.455Z,181.98
2023-03-20T02:16:49.734Z,184.27
2023-03-20T02:19:28.440Z,194.38
2023-03-20T02:22:17.689Z,196.10
2023-03-20T02:25:15.348Z,199.63
2023-03-20T02:27:50.288Z,206.57
2023-03-20T02:30:38.051Z,212.60
2023-03-20T02:33:37.070Z,218.57
2023-03-20T02:36:31.027Z,225.63
2023-03-20T02:39:16.449Z,228.73
2023-03-20T02:41:45.206Z,236.77
2023-03-20T02:44:14.685Z,236.32
2023-03-20T02:46:47.082Z,241.57
2023-03-20T02:49:28.083Z,250.13
2023-03-20T02:51:57.747Z,248.20
2023-03-20T02:54:28.576Z,256.20
2023-03-20T02:57:00.597Z,258.52
2023-03-20T02:59:31.490Z,267.80
2023-03-20T03:02:03.050Z,263.52
2023-03-20T03:04:31.430Z,270.60
2023-03-20T03:07:00.382Z,273.05
2023-03-20T03:09:30.469Z,280.20
2023-03-20T03:12:00.476Z,289.30
2023-03-20T03:14:31.527Z,279.38
2023-03-20T03:16:59.420Z,285.17
2023-03-20T03:19:29.360Z,291.83
2023-03-20T03:21:57.074Z,297.67
2023-03-20T03:24:40.810Z,299.45
2023-03-20T03:27:14.414Z,294.50
2023-03-20T03:29:42.260Z,307.02
2023-03-20T03:32:22.294Z,302.73
2023-03-20T03:34:51.759Z,309.23
2023-03-20T03:37:22.727Z,313.88
2023-03-20T03:39:52.614Z,313.73
2023-03-20T03:42:23.838Z,313.13
2023-03-20T03:44:55.672Z,317.27
2023-03-20T03:47:26.160Z,314.92
2023-03-20T03:49:56.510Z,317.38
2023-03-20T03:52:24.938Z,320.83
2023-03-20T03:54:54.974Z,314.23
2023-03-20T03:57:30.445Z,322.88
2023-03-20T03:59:58.297Z,319.20
2023-03-20T04:02:26.234Z,320.45
2023-03-20T04:04:54.750Z,316.70
2023-03-20T04:07:22.498Z,321.65
2023-03-20T04:09:50.264Z,329.95
2023-03-20T04:12:36.149Z,322.35
2023-03-20T04:15:04.551Z,323.83
2023-03-20T04:17:34.196Z,318.65
2023-03-20T04:20:02.474Z,321.88
2023-03-20T04:22:31.078Z,323.55
2023-03-20T04:25:06.707Z,321.98
2023-03-20T04:27:35.981Z,321.77
2023-03-20T04:30:12.350Z,323.98
2023-03-20T04:32:58.795Z,310.65
2023-03-20T04:35:35.220Z,318.95
2023-03-20T04:38:08.890Z,324.92
2023-03-20T04:40:37.083Z,319.27
2023-03-20T04:43:06.168Z,315.50
2023-03-20T04:45:34.083Z,320.10
2023-03-20T04:48:01.983Z,311.60
2023-03-20T04:50:31.018Z,323.45
2023-03-20T04:52:59.212Z,323.08
2023-03-20T04:55:27.223Z,317.35
2023-03-20T04:57:55.842Z,322.80
2023-03-20T05:00:26.455Z,317.40
2023-03-20T05:02:54.143Z,317.67
2023-03-20T05:05:22.362Z,314.92
2023-03-20T05:07:50.358Z,313.83
2023-03-20T05:10:25.230Z,312.17
2023-03-20T05:12:58.536Z,297.58
2023-03-20T05:15:51.123Z,309.95
2023-03-20T05:18:27.824Z,291.80
2023-03-20T05:21:16.093Z,300.00
2023-03-20T05:23:55.752Z,294.63
2023-03-20T05:26:38.384Z,293.35
2023-03-20T05:29:20.892Z,295.83
2023-03-20T05:32:08.887Z,283.25
2023-03-20T05:34:47.618Z,290.17
2023-03-20T05:37:22.859Z,285.02
2023-03-20T05:40:13.414Z,281.92
2023-03-20T05:42:52.664Z,289.63
2023-03-20T05:45:56.002Z,289.65
2023-03-20T05:48:58.392Z,287.33
2023-03-20T05:51:49.220Z,284.30
2023-03-20T05:54:35.631Z,275.40
2023-03-20T05:57:21.949Z,273.67
2023-03-20T06:00:10.335Z,271.02
2023-03-20T06:02:40.940Z,274.20
2023-03-20T06:05:29.944Z,270.05
2023-03-20T06:07:57.724Z,273.67
2023-03-20T06:10:27.490Z,265.88
2023-03-20T06:12:55.331Z,265.65
2023-03-20T06:15:26.278Z,259.77
2023-03-20T06:18:00.779Z,264.10
2023-03-20T06:20:29.957Z,256.65
2023-03-20T06:22:57.928Z,258.38
2023-03-20T06:25:26.284Z,253.77
2023-03-20T06:27:54.540Z,245.80
2023-03-20T06:30:22.614Z,240.95
2023-03-20T06:32:51.428Z,241.57
2023-03-20T06:35:20.999Z,251.73
2023-03-20T06:37:52.801Z,236.57
2023-03-20T06:40:24.929Z,234.25
2023-03-20T06:42:53.046Z,239.50
2023-03-20T06:45:22.265Z,235.30
2023-03-20T06:48:01.471Z,219.05
2023-03-20T06:50:29.273Z,222.43
2023-03-20T06:53:00.294Z,222.20
2023-03-20T06:55:40.090Z,220.43
2023-03-20T06:58:07.750Z,216.23
2023-03-20T07:00:37.581Z,220.63
2023-03-20T07:03:07.060Z,216.82
2023-03-20T07:05:35.003Z,203.70
2023-03-20T07:08:08.249Z,203.63
2023-03-20T07:10:36.060Z,201.13
2023-03-20T07:13:03.752Z,201.75
2023-03-20T07:15:32.309Z,199.50
2023-03-20T07:18:00.088Z,198.75
2023-03-20T07:20:28.946Z,194.63
2023-03-20T07:22:56.711Z,189.43
2023-03-20T07:25:41.367Z,183.18
2023-03-20T07:28:09.805Z,180.05
2023-03-20T07:30:41.228Z,178.18
2023-03-20T07:33:09.321Z,174.75
2023-03-20T07:35:39.425Z,176.77
2023-03-20T07:38:07.355Z,171.85
2023-03-20T07:40:42.383Z,168.48
2023-03-20T07:43:13.534Z,167.10
2023-03-20T07:45:50.493Z,166.38
2023-03-20T07:48:20.380Z,163.20
2023-03-20T07:50:48.057Z,161.27
2023-03-20T07:53:15.770Z,159.32
2023-03-20T07:55:45.718Z,154.55
2023-03-20T07:58:13.387Z,157.20
2023-03-20T08:00:41.190Z,151.25
2023-03-20T08:03:09.238Z,153.10
2023-03-20T08:05:37.316Z,150.65
2023-03-20T08:08:05.590Z,142.27
2023-03-20T08:10:33.437Z,146.90
2023-03-20T08:13:02.435Z,144.20
2023-03-20T08:15:30.144Z,144.07
2023-03-20T08:17:58.724Z,139.60
2023-03-20T08:20:27.099Z,134.73
2023-03-20T08:22:54.764Z,135.48
2023-03-20T08:25:22.433Z,132.23
2023-03-20T08:27:50.700Z,129.82
2023-03-20T08:30:19.885Z,127.88
2023-03-20T08:32:47.600Z,127.03
2023-03-20T08:35:31.539Z,123.93
2023-03-20T08:38:00.085Z,117.78
2023-03-20T08:40:27.775Z,124.80
2023-03-20T08:42:55.479Z,120.00
2023-03-20T08:45:26.077Z,115.18
2023-03-20T08:47:54.881Z,114.95
2023-03-20T08:50:22.591Z,112.30
2023-03-20T08:52:50.511Z,111.93
2023-03-20T08:55:19.591Z,111.70
2023-03-20T08:57:47.359Z,110.15
2023-03-20T09:00:16.166Z,106.43
2023-03-20T09:02:45.515Z,105.38
2023-03-20T09:05:13.329Z,104.28
2023-03-20T09:07:41.091Z,100.47
2023-03-20T09:10:09.843Z,100.70
2023-03-20T09:12:37.531Z,99.93
2023-03-20T09:15:06.781Z,99.13
2023-03-20T09:17:34.507Z,97.03
2023-03-20T09:20:03.951Z,95.38
2023-03-20T09:22:31.873Z,91.00
2023-03-20T09:24:59.550Z,87.40
2023-03-20T09:27:27.255Z,87.15
2023-03-20T09:29:54.942Z,87.32
2023-03-20T09:32:22.667Z,83.30
2023-03-20T09:34:50.352Z,86.60
2023-03-20T09:37:19.362Z,82.47
2023-03-20T09:39:47.035Z,82.90
2023-03-20T09:42:22.167Z,80.97
2023-03-20T09:44:54.596Z,77.05
2023-03-20T09:47:24.501Z,79.88
2023-03-20T09:50:05.851Z,74.53
2023-03-20T09:52:36.008Z,73.63
2023-03-20T09:55:04.763Z,77.05
2023-03-20T09:57:36.330Z,70.25
2023-03-20T10:00:07.359Z,66.55
2023-03-20T10:02:43.572Z,64.20
2023-03-20T10:05:16.443Z,64.60
2023-03-20T10:07:45.833Z,65.07
2023-03-20T10:10:14.416Z,63.08
2023-03-20T10:12:49.853Z,62.08
2023-03-20T10:15:20.555Z,61.55
2023-03-20T10:17:52.859Z,58.58
2023-03-20T10:20:26.172Z,56.95
2023-03-20T10:22:56.837Z,54.35
2023-03-20T10:25:27.267Z,54.72
2023-03-20T10:27:58.653Z,54.22
2023-03-20T10:30:52.007Z,53.03
2023-03-20T10:33:30.024Z,53.20
2023-03-20T10:36:04.322Z,48.97
2023-03-20T10:38:36.425Z,50.17
2023-03-20T10:41:04.263Z,48.47
2023-03-20T10:43:33.383Z,47.97
2023-03-20T10:46:02.819Z,46.05
2023-03-20T10:48:32.130Z,46.42
2023-03-20T10:51:01.924Z,44.53
2023-03-20T10:53:32.253Z,44.10
2023-03-20T10:56:03.256Z,42.40
2023-03-20T10:58:32.132Z,42.95
2023-03-20T11:01:00.261Z,41.58
2023-03-20T11:03:29.051Z,40.67
2023-03-20T11:06:09.245Z,39.90
2023-03-20T11:08:38.762Z,39.35
2023-03-20T11:11:07.913Z,38.85
2023-03-20T11:13:36.702Z,36.85
2023-03-20T11:16:19.770Z,35.80
2023-03-20T11:18:49.131Z,35.33
2023-03-20T11:21:22.504Z,34.10
2023-03-20T11:23:50.396Z,34.90
2023-03-20T11:26:20.358Z,33.65
2023-03-20T11:28:49.555Z,32.15
2023-03-20T11:31:19.139Z,31.02
2023-03-20T11:33:47.702Z,30.73
2023-03-20T11:36:23.953Z,30.70
2023-03-20T11:38:52.350Z,29.85
2023-03-20T11:41:25.523Z,28.42
2023-03-20T11:43:53.270Z,28.52
2023-03-20T11:46:21.406Z,27.63
2023-03-20T11:48:49.338Z,26.67
2023-03-20T11:51:18.483Z,25.17
2023-03-20T11:53:58.788Z,25.42
2023-03-20T11:56:28.712Z,24.25
2023-03-20T11:58:57.490Z,24.05
2023-03-20T12:01:25.598Z,23.77
2023-03-20T12:03:55.730Z,22.30
2023-03-20T12:06:25.551Z,22.25
2023-03-20T12:08:55.053Z,20.92
2023-03-20T12:11:47.392Z,21.13
2023-03-20T12:14:23.005Z,21.08
2023-03-20T12:16:52.424Z,20.05
2023-03-20T12:19:21.660Z,19.65
2023-03-20T12:21:51.304Z,18.67
2023-03-20T12:24:23.103Z,18.63
2023-03-20T12:26:55.482Z,17.80
2023-03-20T12:29:27.318Z,16.88
2023-03-20T12:31:56.241Z,17.85
2023-03-20T12:34:25.051Z,16.67
2023-03-20T12:36:54.343Z,16.08
2023-03-20T12:39:24.124Z,16.17
2023-03-20T12:42:00.701Z,14.60
2023-03-20T12:44:35.112Z,14.93
2023-03-20T12:47:15.402Z,14.45
2023-03-20T12:49:47.314Z,14.15
2023-03-20T12:52:18.438Z,12.75
2023-03-20T12:55:13.805Z,13.18
2023-03-20T12:57:47.753Z,12.57
2023-03-20T13:00:20.146Z,12.32
2023-03-20T13:02:55.412Z,12.60
2023-03-20T13:05:28.111Z,12.20
2023-03-20T13:08:05.185Z,11.73
2023-03-20T13:10:33.660Z,11.18
2023-03-20T13:13:07.920Z,10.40
2023-03-20T13:15:42.506Z,10.77
2023-03-20T13:18:12.250Z,10.57
2023-03-20T13:20:42.294Z,9.75
2023-03-20T13:23:13.430Z,9.57
2023-03-20T13:25:48.376Z,9.02
2023-03-20T13:28:19.935Z,9.10
2023-03-20T13:30:51.446Z,9.00
2023-03-20T13:33:27.128Z,8.50
2023-03-20T13:35:55.835Z,8.55
2023-03-20T13:38:24.115Z,8.23
2023-03-20T13:40:53.450Z,7.90
2023-03-20T13:43:26.080Z,7.60
2023-03-20T13:45:57.392Z,7.68
2023-03-20T13:48:30.679Z,7.70
2023-03-20T13:51:02.369Z,7.43
2023-03-20T13:53:31.260Z,6.93
2023-03-20T13:56:06.784Z,6.55
2023-03-20T13:59:02.818Z,6.65
2023-03-20T14:01:35.611Z,6.53
2023-03-20T14:04:03.419Z,6.45
2023-03-20T14:06:50.228Z,5.72
2023-03-20T14:09:32.501Z,5.90
2023-03-20T14:12:02.460Z,5.57
2023-03-20T14:14:31.965Z,5.57
2023-03-20T14:17:04.285Z,5.07
2023-03-20T14:19:32.001Z,5.60
2023-03-20T14:21:59.663Z,4.85
2023-03-20T14:24:28.247Z,4.60
2023-03-20T14:26:56.978Z,4.75
2023-03-20T14:29:38.890Z,4.75
2023-03-20T14:32:24.279Z,4.47
2023-03-20T14:34:53.101Z,4.45
2023-03-20T14:37:53.715Z,3.92
2023-03-20T14:40:22.610Z,4.20
2023-03-20T14:42:52.852Z,3.92
2023-03-20T14:45:43.844Z,4.13
2023-03-20T14:48:26.881Z,4.05
2023-03-20T14:51:03.125Z,3.65
2023-03-20T14:53:32.769Z,3.30
2023-03-20T14:56:08.080Z,3.20
2023-03-20T14:58:43.095Z,3.50
2023-03-20T15:01:19.700Z,3.13
2023-03-20T15:03:49.072Z,3.40
2023-03-20T15:06:18.601Z,3.03
2023-03-20T15:08:46.943Z,3.05
2023-03-20T15:11:14.900Z,3.08
2023-03-20T15:13:42.604Z,3.03
2023-03-20T15:16:12.825Z,2.92
2023-03-20T15:18:41.356Z,2.90
2023-03-20T15:21:16.482Z,2.78
2023-03-20T15:23:44.597Z,2.80
2023-03-20T15:26:12.286Z,2.70
2023-03-20T15:28:39.959Z,2.60
2023-03-20T15:31:08.056Z,2.45
2023-03-20T15:33:41.724Z,2.60
2023-03-20T15:36:10.443Z,2.33
2023-03-20T15:38:38.195Z,2.47
2023-03-20T15:41:06.926Z,2.38
2023-03-20T15:43:37.664Z,2.33
2023-03-20T15:46:20.855Z,2.40
2023-03-20T15:48:50.144Z,2.00
2023-03-20T15:51:17.856Z,2.42
2023-03-20T15:53:46.440Z,2.20
2023-03-20T15:56:18.668Z,2.08
2023-03-20T15:58:47.848Z,2.17
2023-03-20T16:01:18.245Z,1.80
2023-03-20T16:03:45.969Z,1.70
2023-03-20T16:06:17.995Z,2.22
2023-03-20T16:08:46.865Z,2.05
2023-03-20T16:11:15.346Z,2.00
2023-03-20T16:13:46.441Z,2.15
2023-03-20T16:16:16.076Z,1.80
2023-03-20T16:18:45.227Z,1.90
2023-03-20T16:21:18.170Z,1.90
2023-03-20T16:23:46.446Z,1.70
2023-03-20T16:26:16.365Z,1.90
2023-03-20T16:28:44.776Z,1.88
2023-03-20T16:31:14.598Z,1.80
2023-03-20T16:33:42.278Z,1.52
2023-03-20T16:36:13.232Z,1.70
2023-03-20T16:38:42.267Z,1.85
2023-03-20T16:41:16.766Z,1.50
2023-03-20T16:43:47.433Z,1.80
2023-03-20T16:46:18.506Z,1.52
2023-03-20T16:48:46.211Z,1.50
2023-03-20T16:51:17.725Z,1.60
2023-03-20T16:53:48.082Z,1.50
2023-03-20T16:56:18.147Z,1.45
2023-03-20T16:58:46.003Z,1.48
2023-03-20T17:01:17.369Z,1.50
2023-03-20T17:03:50.161Z,1.48
2023-03-20T17:06:38.297Z,1.80
2023-03-20T17:09:22.424Z,1.38
2023-03-20T17:11:51.155Z,1.52
2023-03-20T17:14:18.852Z,1.30
2023-03-20T17:16:46.587Z,1.40
2023-03-20T17:19:16.753Z,1.30
2023-03-20T17:21:44.679Z,1.25
2023-03-20T17:24:12.328Z,1.48
2023-03-20T17:26:42.314Z,1.40
2023-03-20T17:29:11.262Z,1.30
2023-03-20T17:31:39.067Z,1.40
2023-03-20T17:34:06.850Z,1.33
2023-03-20T17:36:35.267Z,1.40
2023-03-20T17:39:03.117Z,1.40
2023-03-20T17:41:30.778Z,1.35
2023-03-20T17:44:00.391Z,1.38
2023-03-20T17:46:28.738Z,1.30
2023-03-20T17:48:58.807Z,1.20
2023-03-20T17:51:26.700Z,1.30
2023-03-20T17:53:57.528Z,1.25
2023-03-20T17:56:29.356Z,1.10
2023-03-20T17:58:58.576Z,1.30
2023-03-20T18:01:26.487Z,1.25
2023-03-20T18:03:54.395Z,1.10
2023-03-20T18:06:24.533Z,1.30
2023-03-20T18:08:52.235Z,1.25
2023-03-20T18:11:19.908Z,1.10
2023-03-20T18:13:47.609Z,1.20
2023-03-20T18:16:18.519Z,1.20
2023-03-20T18:18:46.634Z,1.33
2023-03-20T18:21:14.702Z,1.15
2023-03-20T18:23:42.460Z,1.30
2023-03-20T18:26:17.632Z,1.25
2023-03-20T18:28:45.343Z,1.20
2023-03-20T18:31:14.926Z,1.13
2023-03-20T18:33:43.958Z,1.33
2023-03-20T18:36:13.936Z,1.30
2023-03-20T18:38:41.649Z,1.20
2023-03-20T18:41:09.547Z,1.20
2023-03-20T18:43:37.312Z,1.15
2023-03-20T18:46:05.189Z,1.25
2023-03-20T18:48:32.995Z,1.42
2023-03-20T18:51:02.554Z,1.45
2023-03-20T18:53:30.592Z,1.10
2023-03-20T18:55:58.354Z,1.10
2023-03-20T18:58:26.872Z,1.48
2023-03-20T19:00:54.907Z,1.23
2023-03-20T19:03:24.432Z,1.23
2023-03-20T19:05:52.383Z,1.10
2023-03-20T19:08:21.397Z,1.20
2023-03-20T19:10:49.416Z,1.27
2023-03-20T19:13:17.935Z,1.10
2023-03-20T19:15:45.855Z,1.35
2023-03-20T19:18:15.692Z,1.58
2023-03-20T19:20:44.114Z,1.00
2023-03-20T19:23:12.765Z,1.13
2023-03-20T19:25:42.678Z,1.05
2023-03-20T19:28:20.449Z,0.90
2023-03-20T19:30:49.293Z,1.02
2023-03-20T19:33:17.079Z,1.13
2023-03-20T19:36:01.924Z,1.20
2023-03-20T19:38:30.853Z,1.15
2023-03-20T19:41:00.200Z,1.10
2023-03-20T19:43:29.134Z,1.45
2023-03-20T19:45:59.111Z,1.58
2023-03-20T19:48:43.268Z,1.10
2023-03-20T19:51:17.561Z,1.33
2023-03-20T19:53:45.934Z,1.33
2023-03-20T19:56:15.528Z,0.80
2023-03-20T19:58:43.457Z,1.20
2023-03-20T20:01:15.717Z,1.10
2023-03-20T20:03:43.650Z,1.10
2023-03-20T20:06:12.342Z,1.08
2023-03-20T20:08:48.793Z,1.15
2023-03-20T20:11:18.405Z,1.10
2023-03-20T20:14:08.973Z,1.20
2023-03-20T20:16:34.510Z,0.80
2023-03-20T20:19:02.354Z,1.20
2023-03-20T20:24:17.873Z,1.17
2023-03-20T20:26:54.805Z,1.17
2023-03-20T20:29:24.706Z,2.30
2023-03-20T20:31:52.518Z,1.30
2023-03-20T20:39:55.915Z,1.17
2023-03-20T20:42:25.143Z,1.05
2023-03-20T20:44:52.820Z,1.27
2023-03-20T20:47:21.182Z,1.02
2023-03-20T20:49:48.889Z,0.93
2023-03-20T20:52:16.632Z,1.08
2023-03-20T20:54:44.354Z,1.20
2023-03-20T20:57:12.134Z,1.45
2023-03-20T20:59:41.383Z,1.27
2023-03-20T21:02:11.552Z,1.17
2023-03-20T21:04:39.818Z,1.45
2023-03-20T21:07:10.735Z,1.08
2023-03-20T21:09:38.896Z,1.10
2023-03-20T21:12:08.266Z,1.15
2023-03-20T21:14:36.153Z,1.15
2023-03-20T21:17:05.830Z,0.98
2023-03-20T21:19:35.467Z,1.10
2023-03-20T21:22:03.159Z,1.15
2023-03-20T21:24:33.826Z,1.05
2023-03-20T21:27:02.295Z,1.00
2023-03-20T21:29:29.998Z,1.30
2023-03-20T21:31:57.725Z,1.10
2023-03-20T21:34:26.955Z,1.17
2023-03-20T21:36:54.617Z,1.15
2023-03-20T21:39:22.694Z,1.40
2023-03-20T21:41:50.571Z,1.08
2023-03-20T21:44:38.554Z,1.15
2023-03-20T22:01:45.878Z,1.10
2023-03-20T22:10:21.674Z,1.08
2023-03-20T22:15:39.345Z,0.80
2023-03-20T22:18:43.867Z,1.20
2023-03-20T22:27:18.873Z,0.77
2023-03-20T22:29:52.448Z,1.13
2023-03-20T22:35:38.007Z,1.20
2023-03-20T22:38:21.859Z,1.05
2023-03-20T22:46:16.755Z,0.70
2023-03-20T22:48:46.930Z,1.40
2023-03-20T22:51:14.941Z,1.80
2023-03-20T22:53:44.006Z,1.05
2023-03-20T22:56:13.107Z,1.13
2023-03-20T22:58:40.812Z,1.10
2023-03-20T23:01:09.284Z,1.00
2023-03-20T23:03:41.933Z,1.05
2023-03-20T23:06:10.819Z,1.20
2023-03-20T23:08:48.143Z,1.10
2023-03-20T23:11:21.480Z,1.00
2023-03-20T23:13:49.182Z,1.05
2023-03-20T23:16:17.026Z,1.77
2023-03-20T23:18:44.872Z,1.10
2023-03-20T23:21:12.575Z,1.27
2023-03-20T23:23:40.493Z,1.02
2023-03-20T23:26:08.928Z,1.20
2023-03-20T23:28:38.439Z,0.80
2023-03-20T23:31:10.700Z,0.90
2023-03-20T23:33:38.852Z,1.15
2023-03-20T23:36:18.656Z,0.90
2023-03-20T23:38:52.666Z,0.80
2023-03-20T23:41:20.559Z,1.05
2023-03-20T23:43:52.187Z,0.98
2023-03-20T23:46:20.290Z,1.42
2023-03-20T23:48:47.981Z,0.95
2023-03-20T23:51:15.712Z,1.27
2023-03-20T23:53:43.365Z,0.70
2023-03-20T23:56:11.674Z,0.82
2023-03-20T23:58:41.879Z,1.10
